Time;durP1;ratioP1;P1;durP2;ratioP2;P2;SDS_P1;SDS_P2;PMS_P1;PMS_P2;Temp;Humidity;BMP_temperature;BMP_pressure;BME280_temperature;BME280_humidity;BME280_pressure;Samples;Min_cycle;Max_cycle;Signal;HPM_P1;HPM_P2
2023/01/26 00:01:36;;;;;;;97.65;33.25;;;2.20;99.30;;;;;;4994899;28;20039;-85
2023/01/26 00:04:02;;;;;;;92.93;33.70;;;2.30;99.30;;;;;;4994604;28;20057;-85
2023/01/26 00:06:27;;;;;;;100.63;34.97;;;2.10;99.30;;;;;;4992991;28;20026;-86
2023/01/26 00:08:58;;;;;;;109.85;34.28;;;2.10;99.50;;;;;;4994799;28;20018;-85
2023/01/26 00:11:26;;;;;;;105.50;35.33;;;2.10;99.50;;;;;;4993717;28;20097;-85
2023/01/26 00:13:52;;;;;;;110.72;34.15;;;1.80;99.50;;;;;;4994496;28;20409;-86
2023/01/26 00:16:19;;;;;;;113.55;33.55;;;2.00;99.50;;;;;;4996224;28;20035;-84
2023/01/26 00:18:45;;;;;;;109.28;35.97;;;2.00;99.50;;;;;;4996006;28;20121;-84
2023/01/26 00:21:16;;;;;;;108.70;35.88;;;2.00;99.10;;;;;;4998920;28;20022;-82
2023/01/26 00:23:42;;;;;;;105.35;34.38;;;2.10;99.10;;;;;;4994046;28;20031;-83
2023/01/26 00:26:10;;;;;;;108.82;36.42;;;2.10;98.90;;;;;;4991191;28;20499;-84
2023/01/26 00:28:36;;;;;;;118.80;35.30;;;2.10;99.20;;;;;;4992240;28;20129;-84
2023/01/26 00:31:22;;;;;;;107.18;35.00;;;2.00;99.00;;;;;;4992707;28;20169;-83
2023/01/26 00:33:48;;;;;;;100.97;34.03;;;2.10;99.20;;;;;;4992174;28;20050;-86
2023/01/26 00:36:17;;;;;;;106.10;35.47;;;2.20;99.00;;;;;;4993200;28;20026;-85
2023/01/26 00:38:43;;;;;;;101.97;34.55;;;2.10;99.00;;;;;;4992049;28;20027;-85
2023/01/26 00:42:05;;;;;;;111.32;36.08;;;2.10;99.10;;;;;;4991996;28;20045;-86
2023/01/26 00:43:58;;;;;;;110.80;35.08;;;2.00;98.90;;;;;;4992781;28;20065;-86
2023/01/26 00:46:24;;;;;;;100.25;33.58;;;2.20;99.20;;;;;;4992348;28;20041;-86
2023/01/26 00:48:55;;;;;;;111.38;34.83;;;2.20;99.10;;;;;;4991598;28;20038;-84
2023/01/26 00:51:21;;;;;;;109.38;34.70;;;2.20;99.10;;;;;;4993147;28;20030;-86
2023/01/26 00:53:47;;;;;;;125.78;38.63;;;2.20;99.30;;;;;;4991023;28;20469;-84
2023/01/26 00:56:13;;;;;;;113.03;35.53;;;2.30;99.30;;;;;;4992440;28;20034;-84
2023/01/26 00:58:39;;;;;;;110.50;35.20;;;2.20;99.30;;;;;;4991786;28;20038;-84
2023/01/26 01:01:05;;;;;;;108.70;35.67;;;2.20;99.40;;;;;;4992123;28;20038;-86
2023/01/26 01:03:30;;;;;;;118.20;37.88;;;2.10;99.20;;;;;;4992081;28;20101;-84
2023/01/26 01:05:56;;;;;;;104.57;34.63;;;2.20;99.50;;;;;;4991976;28;20026;-85
2023/01/26 01:08:22;;;;;;;116.78;35.63;;;2.30;99.70;;;;;;4990874;28;20068;-86
2023/01/26 01:10:47;;;;;;;108.47;34.97;;;2.30;99.70;;;;;;4992111;28;20465;-86
2023/01/26 01:13:13;;;;;;;113.75;37.20;;;2.30;99.70;;;;;;4992223;28;20065;-85
2023/01/26 01:15:39;;;;;;;115.15;37.50;;;2.30;99.70;;;;;;4992528;28;20058;-85
2023/01/26 01:18:04;;;;;;;125.35;38.53;;;2.30;99.90;;;;;;4994927;28;20026;-86
2023/01/26 01:20:30;;;;;;;118.82;36.78;;;2.30;99.90;;;;;;4994690;28;20420;-85
2023/01/26 01:22:56;;;;;;;110.95;36.72;;;2.30;99.90;;;;;;4996096;28;20184;-87
2023/01/26 01:25:22;;;;;;;116.63;36.33;;;2.30;99.90;;;;;;4995245;28;20026;-87
2023/01/26 01:27:47;;;;;;;111.93;36.15;;;2.30;99.90;;;;;;4995868;28;20050;-85
2023/01/26 01:30:13;;;;;;;107.22;34.72;;;2.30;99.90;;;;;;4995244;28;20029;-85
2023/01/26 01:32:39;;;;;;;119.97;33.90;;;2.30;99.90;;;;;;4996282;28;20253;-85
2023/01/26 01:35:05;;;;;;;112.95;34.70;;;2.30;99.90;;;;;;4994632;28;20066;-84
2023/01/26 01:37:32;;;;;;;103.72;34.40;;;2.30;99.90;;;;;;4995634;28;20100;-84
2023/01/26 01:39:58;;;;;;;108.68;33.38;;;2.40;99.90;;;;;;4994309;28;20370;-84
2023/01/26 01:42:25;;;;;;;102.07;32.97;;;2.40;99.90;;;;;;4995668;28;20044;-83
2023/01/26 01:45:24;;;;;;;101.57;33.45;;;2.30;99.90;;;;;;4994651;28;20031;-83
2023/01/26 01:47:51;;;;;;;98.32;31.67;;;2.20;99.90;;;;;;4995433;28;20362;-86
2023/01/26 01:50:19;;;;;;;97.63;31.48;;;2.30;99.90;;;;;;4994536;28;20038;-84
2023/01/26 01:52:45;;;;;;;92.80;30.63;;;2.20;99.90;;;;;;4995004;28;20078;-82
2023/01/26 01:55:12;;;;;;;104.53;31.77;;;2.30;99.90;;;;;;4995012;28;20468;-84
2023/01/26 01:57:50;;;;;;;106.27;30.73;;;2.30;99.90;;;;;;4995049;28;20032;-85
2023/01/26 02:00:19;;;;;;;89.45;29.92;;;2.30;99.90;;;;;;4995175;28;20022;-82
2023/01/26 02:05:58;;;;;;;95.18;28.65;;;2.30;99.90;;;;;;4994366;28;20045;-83
2023/01/26 02:08:29;;;;;;;98.25;30.08;;;2.20;99.90;;;;;;4993128;28;20093;-83
2023/01/26 02:11:00;;;;;;;93.13;28.98;;;2.30;99.90;;;;;;4993655;28;20038;-85
2023/01/26 02:13:27;;;;;;;81.50;27.33;;;2.20;99.90;;;;;;4993758;28;20389;-83
2023/01/26 02:15:53;;;;;;;92.70;28.67;;;2.20;99.90;;;;;;4995412;28;20093;-85
2023/01/26 02:18:19;;;;;;;87.20;28.70;;;2.20;99.90;;;;;;4996041;28;20275;-86
2023/01/26 02:21:21;;;;;;;89.18;27.65;;;2.20;99.90;;;;;;4994824;28;20480;-85
2023/01/26 02:23:49;;;;;;;94.72;29.45;;;2.20;99.90;;;;;;4992700;28;20027;-84
2023/01/26 02:26:25;;;;;;;95.10;28.10;;;2.30;99.90;;;;;;4993948;28;20050;-84
2023/01/26 02:28:50;;;;;;;101.60;29.63;;;2.20;99.90;;;;;;4992441;28;20037;-83
2023/01/26 02:31:17;;;;;;;99.35;30.40;;;2.40;99.90;;;;;;4993351;28;20113;-84
2023/01/26 02:33:43;;;;;;;95.45;28.90;;;2.20;99.90;;;;;;4994133;28;20042;-85
2023/01/26 02:36:21;;;;;;;92.05;29.25;;;2.30;99.90;;;;;;4994435;28;20027;-85
2023/01/26 02:38:59;;;;;;;88.22;27.92;;;2.30;99.90;;;;;;4993406;28;20037;-84
2023/01/26 02:44:11;;;;;;;90.97;25.50;;;2.20;99.90;;;;;;4994107;28;19985;-84
2023/01/26 02:46:37;;;;;;;92.82;27.25;;;2.30;99.90;;;;;;4993149;28;20026;-85
2023/01/26 02:51:55;;;;;;;85.55;26.02;;;2.30;99.90;;;;;;4994145;28;20081;-85
2023/01/26 02:57:05;;;;;;;79.32;26.77;;;2.30;99.90;;;;;;4993998;28;20057;-84
2023/01/26 02:59:31;;;;;;;92.45;28.45;;;2.40;99.90;;;;;;4993610;28;20457;-85
2023/01/26 03:01:57;;;;;;;89.90;27.80;;;2.30;99.90;;;;;;4993146;28;20045;-84
2023/01/26 03:04:22;;;;;;;94.28;26.80;;;2.40;99.90;;;;;;4992519;28;20037;-86
2023/01/26 03:06:48;;;;;;;90.53;28.85;;;2.30;99.90;;;;;;4992378;28;20038;-84
2023/01/26 03:09:14;;;;;;;85.07;26.38;;;2.40;99.90;;;;;;4993964;28;20041;-84
2023/01/26 03:11:42;;;;;;;83.88;24.95;;;2.40;99.90;;;;;;4993504;28;20030;-83
2023/01/26 03:14:14;;;;;;;84.78;27.52;;;2.40;99.90;;;;;;4992391;28;20377;-84
2023/01/26 03:16:40;;;;;;;80.90;24.67;;;2.40;99.90;;;;;;4992338;28;20420;-83
2023/01/26 03:27:26;;;;;;;90.38;27.08;;;2.50;99.90;;;;;;4993522;28;20313;-85
2023/01/26 03:29:56;;;;;;;84.20;26.98;;;2.50;99.90;;;;;;4993217;28;20026;-84
2023/01/26 03:32:22;;;;;;;86.75;27.20;;;2.60;99.90;;;;;;4992966;28;20039;-83
2023/01/26 03:34:47;;;;;;;85.63;27.25;;;2.60;99.90;;;;;;4993154;28;20065;-84
2023/01/26 03:37:13;;;;;;;89.32;27.42;;;2.60;99.90;;;;;;4991846;28;20524;-85
2023/01/26 03:56:23;;;;;;;83.22;26.63;;;2.90;99.90;;;;;;4992584;28;20065;-83
2023/01/26 03:58:54;;;;;;;88.60;26.17;;;3.00;99.90;;;;;;4992539;28;20089;-83
2023/01/26 04:01:26;;;;;;;78.38;25.55;;;3.00;99.90;;;;;;4991164;28;20409;-83
2023/01/26 04:09:23;;;;;;;82.90;26.58;;;3.10;99.90;;;;;;4994005;28;20096;-87
2023/01/26 04:11:49;;;;;;;81.88;27.48;;;3.00;99.90;;;;;;4992499;28;20027;-83
2023/01/26 04:22:33;;;;;;;82.80;27.42;;;3.10;99.90;;;;;;4991742;28;20128;-83
2023/01/26 04:24:58;;;;;;;88.25;29.00;;;3.00;99.90;;;;;;4992024;28;20041;-84
2023/01/26 04:27:24;;;;;;;79.97;26.45;;;3.00;99.90;;;;;;4992027;28;20046;-84
2023/01/26 04:29:50;;;;;;;81.82;25.92;;;3.00;99.90;;;;;;4991173;28;20116;-83
2023/01/26 04:32:15;;;;;;;95.43;29.58;;;3.00;99.90;;;;;;4991763;28;20125;-82
2023/01/26 04:34:41;;;;;;;87.85;27.63;;;3.00;99.90;;;;;;4991700;28;20392;-84
2023/01/26 04:37:08;;;;;;;87.88;28.42;;;3.20;99.90;;;;;;4990742;28;20058;-83
2023/01/26 04:39:34;;;;;;;96.38;29.55;;;3.10;99.90;;;;;;4990923;28;20022;-84
2023/01/26 04:41:59;;;;;;;91.75;27.98;;;3.00;99.90;;;;;;4992179;28;20512;-84
2023/01/26 04:44:25;;;;;;;88.45;27.88;;;3.10;99.90;;;;;;4991036;28;20057;-83
2023/01/26 04:46:50;;;;;;;85.28;28.05;;;3.10;99.90;;;;;;4991038;28;20121;-83
2023/01/26 04:49:16;;;;;;;91.80;29.05;;;3.10;99.90;;;;;;4991944;28;20057;-83
2023/01/26 04:51:42;;;;;;;87.72;30.10;;;3.20;99.90;;;;;;4991508;28;20031;-82
2023/01/26 04:54:08;;;;;;;83.53;27.27;;;3.20;99.90;;;;;;4995028;28;20022;-82
2023/01/26 04:56:34;;;;;;;74.05;26.85;;;3.00;99.90;;;;;;4994430;28;20053;-82
2023/01/26 04:59:03;;;;;;;74.95;26.15;;;3.00;99.90;;;;;;4994440;28;20373;-82
2023/01/26 05:01:31;;;;;;;84.32;28.85;;;3.00;99.90;;;;;;4995639;28;20168;-83
2023/01/26 05:04:01;;;;;;;85.47;28.73;;;3.00;99.90;;;;;;4994640;28;20372;-83
2023/01/26 05:06:26;;;;;;;86.88;28.73;;;3.00;99.90;;;;;;4994692;28;20097;-83
2023/01/26 05:08:52;;;;;;;85.70;27.88;;;3.00;99.90;;;;;;4994934;28;20388;-83
2023/01/26 05:11:18;;;;;;;82.85;27.67;;;3.00;99.90;;;;;;4995449;28;20447;-82
2023/01/26 05:13:45;;;;;;;87.38;27.33;;;3.00;99.90;;;;;;4996019;28;20523;-85
2023/01/26 05:16:12;;;;;;;84.63;28.13;;;3.10;99.90;;;;;;4997408;28;20026;-84
2023/01/26 05:18:39;;;;;;;76.95;25.60;;;2.90;99.90;;;;;;4996187;28;20476;-85
2023/01/26 05:21:05;;;;;;;83.85;27.75;;;2.90;99.90;;;;;;4996523;28;20034;-83
2023/01/26 05:23:30;;;;;;;82.03;28.10;;;2.90;99.90;;;;;;4996561;28;20342;-83
2023/01/26 05:25:56;;;;;;;93.45;28.23;;;3.00;99.90;;;;;;4994687;28;20046;-83
2023/01/26 05:28:22;;;;;;;84.68;27.75;;;3.10;99.90;;;;;;4995365;28;20037;-81
2023/01/26 05:30:47;;;;;;;82.55;27.73;;;3.00;99.90;;;;;;4995171;28;20023;-82
2023/01/26 05:33:14;;;;;;;86.93;29.65;;;2.90;99.90;;;;;;4995331;28;20100;-82
2023/01/26 05:35:40;;;;;;;90.45;28.90;;;3.00;99.90;;;;;;4995000;28;20042;-83
2023/01/26 05:38:06;;;;;;;81.20;27.67;;;3.10;99.90;;;;;;4994814;28;20376;-83
2023/01/26 05:40:32;;;;;;;76.40;27.23;;;3.00;99.90;;;;;;4995123;28;20077;-83
2023/01/26 05:42:57;;;;;;;79.90;27.48;;;3.00;99.90;;;;;;4993799;28;20062;-83
2023/01/26 05:45:23;;;;;;;77.95;27.52;;;2.90;99.90;;;;;;4995111;28;20030;-83
2023/01/26 05:47:49;;;;;;;82.70;28.98;;;2.90;99.90;;;;;;4995040;28;20026;-82
2023/01/26 05:50:17;;;;;;;78.78;27.85;;;2.90;99.90;;;;;;4994783;28;20033;-84
2023/01/26 05:52:45;;;;;;;76.90;27.80;;;2.90;99.90;;;;;;4994591;28;20450;-83
2023/01/26 05:55:11;;;;;;;78.55;27.83;;;3.00;99.90;;;;;;4994857;28;20042;-84
2023/01/26 05:57:37;;;;;;;71.85;26.17;;;3.00;99.90;;;;;;4994643;28;20093;-85
2023/01/26 06:00:05;;;;;;;80.82;27.17;;;2.90;99.90;;;;;;4995327;28;20402;-83
2023/01/26 06:02:31;;;;;;;80.43;27.38;;;2.90;99.90;;;;;;4994949;28;20034;-84
2023/01/26 06:04:57;;;;;;;87.95;29.60;;;2.80;99.90;;;;;;4994053;28;20026;-85
2023/01/26 06:07:25;;;;;;;83.75;28.90;;;2.90;99.90;;;;;;4995242;28;20027;-86
2023/01/26 06:09:51;;;;;;;78.22;27.58;;;2.80;99.90;;;;;;4993946;28;20030;-83
2023/01/26 06:12:18;;;;;;;87.80;30.45;;;2.80;99.90;;;;;;4994254;28;20364;-85
2023/01/26 06:14:44;;;;;;;86.65;29.60;;;2.90;99.90;;;;;;4995174;28;20086;-85
2023/01/26 06:17:11;;;;;;;81.25;28.85;;;2.90;99.90;;;;;;4993996;28;20085;-86
2023/01/26 06:19:36;;;;;;;79.97;28.23;;;2.90;99.90;;;;;;4994736;28;20061;-85
2023/01/26 06:22:05;;;;;;;82.53;30.13;;;2.80;99.90;;;;;;4993903;28;20468;-84
2023/01/26 06:24:33;;;;;;;76.22;28.17;;;2.80;99.90;;;;;;4994871;28;20034;-85
2023/01/26 06:26:59;;;;;;;82.03;28.75;;;2.80;99.90;;;;;;4994807;28;20042;-83
2023/01/26 06:29:25;;;;;;;83.00;28.52;;;2.80;99.90;;;;;;4994905;28;20039;-84
2023/01/26 06:31:50;;;;;;;91.43;29.00;;;2.90;99.90;;;;;;4994329;28;20042;-83
2023/01/26 06:34:16;;;;;;;83.40;28.13;;;3.00;99.90;;;;;;4994435;28;20373;-85
2023/01/26 06:36:42;;;;;;;81.03;27.52;;;3.10;99.90;;;;;;4994777;28;20041;-83
2023/01/26 06:39:10;;;;;;;75.82;27.83;;;3.10;99.90;;;;;;4994928;28;20315;-82
2023/01/26 06:41:36;;;;;;;72.15;27.17;;;3.10;99.90;;;;;;4992992;28;20045;-82
2023/01/26 06:44:01;;;;;;;77.65;28.13;;;2.90;99.90;;;;;;4994290;28;20129;-81
2023/01/26 06:46:27;;;;;;;80.18;28.35;;;3.00;99.90;;;;;;4987130;28;20033;-80
2023/01/26 06:48:52;;;;;;;80.18;28.92;;;3.10;99.90;;;;;;5001310;28;20038;-85
2023/01/26 06:51:18;;;;;;;79.82;27.63;;;3.20;99.90;;;;;;4993478;28;20026;-81
2023/01/26 06:53:52;;;;;;;71.63;26.88;;;3.10;99.90;;;;;;4994318;28;20081;-81
2023/01/26 06:56:18;;;;;;;77.80;28.35;;;3.10;99.90;;;;;;4994427;28;20053;-83
2023/01/26 06:58:43;;;;;;;81.13;28.38;;;3.10;99.90;;;;;;4992948;28;20448;-81
2023/01/26 07:01:33;;;;;;;80.20;28.63;;;3.00;99.90;;;;;;4994010;28;20053;-81
2023/01/26 07:03:59;;;;;;;81.88;27.23;;;3.10;99.90;;;;;;4993916;28;20022;-82
2023/01/26 07:06:24;;;;;;;79.72;27.40;;;3.00;99.90;;;;;;4992749;28;20041;-81
2023/01/26 07:08:50;;;;;;;73.55;27.10;;;2.90;99.90;;;;;;4992939;28;20036;-81
2023/01/26 07:11:16;;;;;;;84.55;27.40;;;3.00;99.90;;;;;;4993870;28;20030;-80
2023/01/26 07:13:42;;;;;;;82.55;28.52;;;3.10;99.90;;;;;;4992657;28;20061;-82
2023/01/26 07:16:10;;;;;;;71.45;25.45;;;3.10;99.90;;;;;;4992217;28;20026;-81
2023/01/26 07:18:36;;;;;;;73.47;28.13;;;3.20;99.90;;;;;;4993438;28;20037;-82
2023/01/26 07:21:09;;;;;;;79.72;28.00;;;3.10;99.90;;;;;;4992759;28;20100;-82
2023/01/26 07:23:34;;;;;;;77.07;25.98;;;3.00;99.90;;;;;;4993675;28;20065;-83
2023/01/26 07:26:00;;;;;;;80.57;29.20;;;3.10;99.90;;;;;;4993572;28;20038;-79
2023/01/26 07:28:26;;;;;;;79.00;28.08;;;3.10;99.90;;;;;;4993627;28;20042;-80
2023/01/26 07:30:56;;;;;;;79.03;28.88;;;3.00;99.90;;;;;;4993204;28;20034;-79
2023/01/26 07:33:21;;;;;;;79.32;29.60;;;3.20;99.90;;;;;;4994417;28;20058;-81
2023/01/26 07:35:47;;;;;;;78.57;27.30;;;3.20;99.90;;;;;;4993681;28;20378;-79
2023/01/26 07:38:13;;;;;;;72.00;28.10;;;3.20;99.90;;;;;;4993141;28;20042;-79
2023/01/26 07:40:38;;;;;;;81.95;28.60;;;3.20;99.90;;;;;;4994144;28;20039;-79
2023/01/26 07:43:04;;;;;;;76.82;27.17;;;3.10;99.90;;;;;;4994053;28;20038;-78
2023/01/26 07:45:29;;;;;;;72.00;27.30;;;3.20;99.90;;;;;;4992960;28;20145;-80
2023/01/26 07:47:56;;;;;;;76.22;29.08;;;3.20;99.90;;;;;;4993452;28;20026;-80
2023/01/26 07:50:24;;;;;;;70.47;26.60;;;3.30;99.90;;;;;;4993987;28;20026;-79
2023/01/26 07:52:53;;;;;;;66.18;26.38;;;3.40;99.90;;;;;;4993003;28;20045;-80
2023/01/26 07:55:20;;;;;;;77.78;28.88;;;3.50;99.90;;;;;;4994054;28;20033;-79
2023/01/26 07:57:49;;;;;;;67.65;26.00;;;3.30;99.90;;;;;;4993139;28;20026;-79
2023/01/26 08:00:16;;;;;;;69.85;26.13;;;3.30;99.90;;;;;;4993085;28;20045;-79
2023/01/26 08:02:42;;;;;;;70.78;27.63;;;3.20;99.90;;;;;;4991613;28;20420;-78
2023/01/26 08:05:08;;;;;;;62.58;24.92;;;3.20;99.90;;;;;;4992580;28;20026;-80
2023/01/26 08:07:33;;;;;;;73.70;27.30;;;3.20;99.90;;;;;;4991113;28;20057;-79
2023/01/26 08:09:59;;;;;;;74.07;27.63;;;3.10;99.90;;;;;;4992649;28;20408;-79
2023/01/26 08:12:25;;;;;;;72.30;28.65;;;3.20;99.90;;;;;;4992398;28;20113;-80
2023/01/26 08:14:51;;;;;;;66.00;26.40;;;3.20;99.90;;;;;;4993049;28;20053;-77
2023/01/26 08:17:17;;;;;;;75.05;28.50;;;3.20;99.90;;;;;;4992451;28;20034;-79
2023/01/26 08:19:44;;;;;;;70.32;26.70;;;3.30;99.90;;;;;;4991351;28;20112;-78
2023/01/26 08:22:10;;;;;;;70.68;28.33;;;3.40;99.90;;;;;;4991226;28;20151;-79
2023/01/26 08:24:35;;;;;;;67.70;25.88;;;3.50;99.90;;;;;;4992463;28;20161;-79
2023/01/26 08:27:01;;;;;;;71.85;26.35;;;3.50;99.90;;;;;;4992232;28;20050;-79
2023/01/26 08:29:26;;;;;;;68.78;25.67;;;3.50;99.90;;;;;;4992201;28;20042;-79
2023/01/26 08:31:52;;;;;;;69.55;27.02;;;3.40;99.90;;;;;;4990855;28;20536;-77
2023/01/26 08:34:20;;;;;;;65.45;24.90;;;3.40;99.90;;;;;;4992243;28;20547;-77
2023/01/26 08:36:46;;;;;;;;;;;3.30;99.90;;;;;;4991359;28;20031;-79
2023/01/26 08:39:12;;;;;;;71.03;25.00;;;3.20;99.90;;;;;;4992200;28;19988;-79
2023/01/26 08:41:38;;;;;;;71.05;27.77;;;3.10;99.90;;;;;;4992899;28;20527;-79
2023/01/26 08:44:04;;;;;;;68.63;25.90;;;3.20;99.90;;;;;;4991865;28;20038;-79
2023/01/26 08:46:30;;;;;;;69.50;26.27;;;3.20;99.90;;;;;;4990754;28;20468;-80
2023/01/26 08:48:55;;;;;;;68.13;25.95;;;3.20;99.90;;;;;;4991216;28;20121;-79
2023/01/26 08:51:21;;;;;;;68.82;24.90;;;3.30;99.90;;;;;;4992481;28;20022;-77
2023/01/26 08:53:47;;;;;;;67.25;25.35;;;3.30;99.90;;;;;;4992699;28;20062;-79
2023/01/26 08:56:13;;;;;;;68.68;23.90;;;3.20;99.90;;;;;;4991571;28;20065;-79
2023/01/26 08:58:39;;;;;;;69.18;24.77;;;3.20;99.90;;;;;;4992752;28;20034;-79
2023/01/26 09:01:06;;;;;;;67.55;25.40;;;3.30;99.90;;;;;;4992167;28;20046;-79
2023/01/26 09:03:31;;;;;;;64.63;24.50;;;3.40;99.90;;;;;;4993513;28;20026;-79
2023/01/26 09:06:01;;;;;;;65.38;26.55;;;3.30;99.90;;;;;;4993059;28;20511;-79
2023/01/26 09:08:27;;;;;;;60.72;24.27;;;3.30;99.90;;;;;;4994551;28;20037;-79
2023/01/26 09:10:53;;;;;;;57.20;22.77;;;3.40;99.90;;;;;;4992442;28;20038;-78
2023/01/26 09:13:18;;;;;;;61.53;23.70;;;3.20;99.90;;;;;;4993455;28;20360;-79
2023/01/26 09:15:44;;;;;;;71.53;24.92;;;3.20;99.90;;;;;;4992544;28;20804;-80
2023/01/26 09:18:10;;;;;;;75.78;26.23;;;3.30;99.90;;;;;;4993136;28;20129;-78
2023/01/26 09:20:40;;;;;;;65.88;24.15;;;3.40;99.90;;;;;;4992192;28;20041;-78
2023/01/26 09:23:06;;;;;;;66.57;23.88;;;3.50;99.90;;;;;;4992315;28;20026;-79
2023/01/26 09:25:36;;;;;;;60.75;22.33;;;3.60;99.90;;;;;;4993795;28;20027;-77
2023/01/26 09:28:03;;;;;;;58.08;22.42;;;3.60;99.90;;;;;;4991402;28;20049;-79
2023/01/26 09:30:29;;;;;;;56.75;22.73;;;3.60;99.90;;;;;;4993413;28;20455;-80
2023/01/26 09:32:59;;;;;;;59.30;22.58;;;3.50;99.90;;;;;;4992634;28;20050;-80
2023/01/26 09:35:26;;;;;;;56.08;22.63;;;3.60;99.90;;;;;;4992274;28;20430;-79
2023/01/26 09:37:52;;;;;;;57.83;23.02;;;3.70;99.90;;;;;;4990731;28;20034;-80
2023/01/26 09:40:50;;;;;;;53.25;21.67;;;3.60;99.90;;;;;;4993661;28;20037;-80
2023/01/26 09:43:37;;;;;;;62.22;23.02;;;3.70;99.90;;;;;;4994817;28;20035;-79
2023/01/26 09:46:06;;;;;;;96.97;37.08;;;3.80;99.90;;;;;;4994852;28;20031;-79
2023/01/26 09:48:53;;;;;;;64.15;23.85;;;3.90;99.90;;;;;;4995074;28;20030;-78
2023/01/26 09:51:18;;;;;;;60.85;22.73;;;3.90;99.90;;;;;;4995279;28;20452;-79
2023/01/26 09:53:49;;;;;;;59.65;23.65;;;3.90;99.90;;;;;;4994642;28;20049;-78
2023/01/26 09:56:18;;;;;;;57.30;21.92;;;3.90;99.90;;;;;;4994890;28;20473;-78
2023/01/26 09:59:01;;;;;;;54.42;22.15;;;3.90;99.90;;;;;;4993617;28;20389;-79
2023/01/26 10:01:55;;;;;;;54.17;20.38;;;3.90;99.90;;;;;;4993805;28;20433;-79
2023/01/26 10:04:23;;;;;;;49.55;19.98;;;3.90;99.90;;;;;;4988402;28;20305;-78
2023/01/26 10:06:52;;;;;;;55.17;21.23;;;3.90;99.90;;;;;;4994474;28;20037;-78
2023/01/26 10:09:28;;;;;;;53.92;21.20;;;4.00;99.90;;;;;;4995323;28;20050;-78
2023/01/26 10:12:05;;;;;;;50.42;20.30;;;4.10;99.90;;;;;;4994473;28;20384;-79
2023/01/26 10:14:52;;;;;;;54.97;20.40;;;4.00;99.90;;;;;;4996305;28;20030;-80
2023/01/26 10:17:27;;;;;;;54.35;20.42;;;3.80;99.90;;;;;;4996083;28;20109;-79
2023/01/26 10:20:08;;;;;;;50.45;19.95;;;3.90;99.90;;;;;;4996799;28;20041;-79
2023/01/26 10:22:44;;;;;;;55.17;21.67;;;4.00;99.90;;;;;;4995007;28;20133;-78
2023/01/26 10:25:15;;;;;;;50.95;20.42;;;4.10;99.90;;;;;;4996495;28;20045;-80
2023/01/26 10:27:42;;;;;;;56.38;21.10;;;4.20;99.90;;;;;;4994891;28;20096;-78
2023/01/26 10:30:13;;;;;;;61.95;21.65;;;4.00;99.90;;;;;;4996012;28;20458;-79
2023/01/26 10:32:42;;;;;;;56.42;22.45;;;3.80;99.90;;;;;;4996861;28;20484;-80
2023/01/26 10:35:21;;;;;;;59.92;23.63;;;3.90;99.90;;;;;;4994725;28;20054;-81
2023/01/26 10:37:47;;;;;;;59.28;22.15;;;3.90;99.90;;;;;;4993686;28;20038;-78
2023/01/26 10:40:13;;;;;;;59.90;22.88;;;4.00;99.90;;;;;;4993596;28;20034;-77
2023/01/26 10:42:40;;;;;;;62.35;23.35;;;4.00;99.90;;;;;;4994306;28;20465;-79
2023/01/26 10:45:28;;;;;;;63.47;23.45;;;4.00;99.90;;;;;;4995891;28;20341;-80
2023/01/26 10:48:23;;;;;;;60.67;22.65;;;4.20;99.90;;;;;;4994906;28;20518;-81
2023/01/26 10:50:49;;;;;;;65.57;23.80;;;4.10;99.90;;;;;;4993956;28;20434;-81
2023/01/26 10:53:18;;;;;;;61.08;23.58;;;4.10;99.90;;;;;;4992884;28;20415;-79
2023/01/26 10:55:58;;;;;;;63.33;23.33;;;4.20;99.90;;;;;;4993862;28;20109;-81
2023/01/26 10:58:48;;;;;;;67.35;22.90;;;4.30;99.90;;;;;;4992748;28;20027;-80
2023/01/26 11:01:17;;;;;;;59.85;22.30;;;4.30;99.90;;;;;;4993605;28;20038;-80
2023/01/26 11:03:58;;;;;;;64.43;25.15;;;4.20;99.90;;;;;;4993592;28;20453;-78
2023/01/26 11:06:27;;;;;;;64.22;24.08;;;4.30;99.90;;;;;;4992893;28;20193;-78
2023/01/26 11:08:53;;;;;;;63.88;23.67;;;4.30;99.90;;;;;;4993634;28;20117;-78
2023/01/26 11:11:26;;;;;;;64.20;23.25;;;4.10;99.90;;;;;;4993496;28;20125;-78
2023/01/26 11:14:16;;;;;;;64.38;23.42;;;4.20;99.90;;;;;;4993350;28;20034;-79
2023/01/26 11:17:10;;;;;;;67.40;23.80;;;4.30;99.90;;;;;;4993393;28;20482;-80
2023/01/26 11:20:25;;;;;;;63.47;22.90;;;4.20;99.90;;;;;;4987605;28;20050;-80
2023/01/26 11:22:51;;;;;;;63.35;23.00;;;4.10;99.90;;;;;;4994358;28;20369;-80
2023/01/26 11:25:40;;;;;;;66.18;23.08;;;4.30;99.90;;;;;;4993469;28;20034;-82
2023/01/26 11:28:13;;;;;;;61.63;22.40;;;4.30;99.90;;;;;;4995450;28;20047;-81
2023/01/26 11:31:12;;;;;;;63.55;23.20;;;4.20;99.90;;;;;;4994958;28;20026;-81
2023/01/26 11:33:50;;;;;;;62.50;24.00;;;4.30;99.90;;;;;;4993553;28;20030;-79
2023/01/26 11:36:39;;;;;;;58.78;21.65;;;4.50;99.90;;;;;;4995437;28;20022;-79
2023/01/26 11:39:29;;;;;;;55.97;21.33;;;4.60;99.90;;;;;;4994133;28;20053;-80
2023/01/26 11:42:28;;;;;;;54.53;21.45;;;4.60;99.90;;;;;;4995481;28;20360;-81
2023/01/26 11:45:16;;;;;;;54.05;20.13;;;4.60;99.90;;;;;;4993891;28;20404;-81
2023/01/26 11:48:00;;;;;;;58.55;20.88;;;4.40;99.90;;;;;;4992599;28;20089;-79
2023/01/26 11:50:34;;;;;;;93.85;35.67;;;4.40;99.90;;;;;;4992888;28;20034;-82
2023/01/26 11:53:19;;;;;;;122.32;49.55;;;4.40;99.90;;;;;;4991905;28;20088;-78
2023/01/26 11:55:47;;;;;;;63.85;23.67;;;4.40;99.90;;;;;;4992532;28;20065;-82
2023/01/26 11:58:28;;;;;;;69.90;27.52;;;4.30;99.90;;;;;;4993249;28;20112;-82
2023/01/26 12:01:02;;;;;;;59.88;23.00;;;4.30;99.90;;;;;;4993142;28;20023;-82
2023/01/26 12:03:46;;;;;;;54.83;21.08;;;4.40;99.90;;;;;;4992647;28;20026;-82
2023/01/26 12:06:38;;;;;;;59.03;22.10;;;4.40;99.90;;;;;;4993643;28;20022;-83
2023/01/26 12:09:11;;;;;;;57.47;21.80;;;4.50;99.90;;;;;;4992465;28;20110;-81
2023/01/26 12:11:43;;;;;;;60.08;22.05;;;4.50;99.90;;;;;;4992429;28;20050;-80
2023/01/26 12:14:20;;;;;;;60.03;22.15;;;4.80;99.90;;;;;;4993134;28;20041;-81
2023/01/26 12:17:08;;;;;;;57.28;20.73;;;4.40;99.90;;;;;;4994259;28;20466;-80
2023/01/26 12:19:47;;;;;;;60.92;22.48;;;4.50;99.90;;;;;;4993870;28;20045;-81
2023/01/26 12:22:20;;;;;;;58.75;22.33;;;4.60;99.90;;;;;;4994296;28;20035;-81
2023/01/26 12:24:57;;;;;;;62.80;21.98;;;4.60;99.90;;;;;;4993245;28;20031;-80
2023/01/26 12:27:37;;;;;;;56.72;20.63;;;4.60;99.90;;;;;;4995155;28;20054;-81
2023/01/26 12:30:26;;;;;;;61.38;21.63;;;4.40;99.90;;;;;;4994292;28;20142;-80
2023/01/26 12:32:52;;;;;;;58.80;21.60;;;4.20;99.90;;;;;;4993178;28;20057;-80
2023/01/26 12:35:36;;;;;;;57.45;21.23;;;4.20;99.90;;;;;;4994617;28;20034;-80
2023/01/26 12:38:18;;;;;;;63.42;21.60;;;4.20;99.90;;;;;;4994583;28;20050;-83
2023/01/26 12:41:14;;;;;;;55.88;21.33;;;4.30;99.90;;;;;;4993806;28;20031;-81
2023/01/26 12:43:42;;;;;;;61.20;21.45;;;4.30;99.90;;;;;;4992952;28;20121;-81
2023/01/26 12:46:10;;;;;;;61.20;22.27;;;4.30;99.90;;;;;;4994441;28;20031;-81
2023/01/26 12:48:45;;;;;;;72.25;23.05;;;4.50;99.90;;;;;;4993380;28;20022;-80
2023/01/26 12:51:28;;;;;;;64.00;23.75;;;4.60;99.90;;;;;;4994642;28;20026;-81
2023/01/26 12:54:02;;;;;;;59.72;22.98;;;4.30;99.90;;;;;;4993424;28;20516;-80
2023/01/26 12:56:38;;;;;;;58.60;22.27;;;4.40;99.90;;;;;;4994686;28;20050;-80
2023/01/26 12:59:32;;;;;;;59.58;21.83;;;4.40;99.90;;;;;;4994538;28;20042;-81
2023/01/26 13:01:59;;;;;;;63.42;22.60;;;4.50;99.90;;;;;;4993495;28;20031;-82
2023/01/26 13:04:25;;;;;;;56.33;20.77;;;4.50;99.90;;;;;;4995712;28;20372;-80
2023/01/26 13:07:02;;;;;;;53.55;20.73;;;4.50;99.90;;;;;;4997663;28;20033;-81
2023/01/26 13:09:28;;;;;;;49.58;18.35;;;4.30;99.90;;;;;;4996104;28;20034;-82
2023/01/26 13:11:58;;;;;;;52.03;18.33;;;4.40;99.90;;;;;;4997898;28;20023;-82
2023/01/26 13:14:39;;;;;;;52.15;19.70;;;4.30;99.90;;;;;;4999766;28;20042;-81
2023/01/26 13:17:15;;;;;;;51.42;18.92;;;4.20;99.90;;;;;;5001487;28;20034;-81
2023/01/26 13:19:45;;;;;;;49.72;17.90;;;4.40;99.90;;;;;;5001816;28;20070;-80
2023/01/26 13:22:22;;;;;;;45.30;17.20;;;4.60;99.90;;;;;;5002993;28;20049;-80
2023/01/26 13:24:49;;;;;;;;;;;4.70;99.90;;;;;;5001878;28;20038;-82
2023/01/26 13:27:37;;;;;;;43.55;15.70;;;4.50;99.90;;;;;;5002497;28;19925;-82
2023/01/26 13:30:23;;;;;;;53.42;18.13;;;4.60;99.90;;;;;;5001972;28;20050;-80
2023/01/26 13:32:50;;;;;;;49.38;17.60;;;4.70;99.90;;;;;;4999939;28;20086;-80
2023/01/26 13:35:19;;;;;;;76.78;31.95;;;4.60;99.90;;;;;;4999476;28;20037;-80
2023/01/26 13:38:18;;;;;;;56.13;20.83;;;4.70;99.90;;;;;;4999949;28;20034;-81
2023/01/26 13:40:48;;;;;;;51.88;17.73;;;4.50;99.90;;;;;;5000068;28;20030;-82
2023/01/26 13:43:31;;;;;;;40.97;15.65;;;4.60;99.90;;;;;;5002889;28;20100;-82